Terminal Aerodrome Forecast
Issued by NWS Wakefield, VA

Home | Current Version | Previous Version | Text Only | Print | Product List | Glossary On
Versions: 1 2 3 4 5 6 7 8 9 10 11 12 13 14 15 16 17 18 19 20 21 22 23 24 25
000
FTUS41 KAKQ 060500
TAFECG
TAF
KECG 060537Z 0606/0706 36020G27KT P6SM BKN015
     FM060900 36021G28KT P6SM BKN070
     FM061200 36018G25KT P6SM SKC
     FM061800 01010KT P6SM SKC=

USA.gov is the U.S. government's official web portal to all federal, state and local government web resources and services.